Time;durP1;ratioP1;P1;durP2;ratioP2;P2;SDS_P1;SDS_P2;PMS_P1;PMS_P2;Temp;Humidity;BMP_temperature;BMP_pressure;BME280_temperature;BME280_humidity;BME280_pressure;Samples;Min_cycle;Max_cycle;Signal;HPM_P1;HPM_P2
2021/12/02 00:01:58;;;;;;;36.28;24.05;;;;;;;4.92;97.91;97243.59;5020361;28;20033;-64
2021/12/02 00:04:26;;;;;;;37.75;24.30;;;;;;;4.84;98.39;97220.31;5036803;28;20029;-64
2021/12/02 00:06:51;;;;;;;32.70;22.95;;;;;;;4.95;98.05;97227.06;5042532;28;20020;-64
2021/12/02 00:09:17;;;;;;;32.75;23.10;;;;;;;4.94;97.31;97222.84;5028936;28;20032;-65
2021/12/02 00:11:42;;;;;;;36.10;23.73;;;;;;;4.96;98.05;97218.34;5056178;28;20035;-64
2021/12/02 00:14:11;;;;;;;32.97;23.38;;;;;;;4.92;98.15;97225.56;5044077;28;20033;-64
2021/12/02 00:16:53;;;;;;;34.78;23.17;;;;;;;4.90;97.82;97234.38;5058273;28;20132;-64
2021/12/02 00:22:03;;;;;;;33.28;22.38;;;;;;;5.01;97.42;97213.59;5039316;28;20080;-65
2021/12/02 00:24:36;;;;;;;37.42;22.63;;;;;;;4.99;96.71;97218.88;5051515;28;20031;-65
2021/12/02 00:27:09;;;;;;;33.67;23.33;;;;;;;5.00;96.70;97209.38;5041055;28;20111;-65
2021/12/02 00:29:36;;;;;;;34.42;21.95;;;;;;;4.94;96.26;97205.63;5042328;28;20029;-65
2021/12/02 00:32:07;;;;;;;35.10;22.27;;;;;;;5.00;96.64;97209.38;5050539;28;20021;-65
2021/12/02 00:34:33;;;;;;;35.13;22.25;;;;;;;5.00;96.57;97209.38;5036248;28;20040;-65
2021/12/02 00:37:01;;;;;;;30.48;21.10;;;;;;;5.01;96.52;97203.28;5037236;28;20050;-65
2021/12/02 00:39:27;;;;;;;33.28;21.17;;;;;;;5.02;95.93;97202.34;5034329;28;20474;-65
2021/12/02 00:41:54;;;;;;;33.42;20.98;;;;;;;5.08;95.39;97199.19;5036532;28;20029;-64
2021/12/02 00:44:20;;;;;;;26.27;20.42;;;;;;;5.15;95.69;97192.50;5038919;28;20032;-65
2021/12/02 00:46:45;;;;;;;29.35;19.65;;;;;;;5.16;94.86;97196.66;5056071;28;20024;-65
2021/12/02 00:49:14;;;;;;;31.17;20.13;;;;;;;4.94;95.69;97194.50;5024406;28;20093;-65
2021/12/02 00:51:41;;;;;;;27.50;18.93;;;;;;;4.95;95.72;97196.16;5035727;28;20083;-65
2021/12/02 00:54:11;;;;;;;28.52;19.02;;;;;;;4.96;94.95;97198.56;5021037;28;20495;-64
2021/12/02 00:56:37;;;;;;;;;;;;;;;4.96;94.39;97200.31;5039921;28;20028;-65
2021/12/02 00:59:03;;;;;;;32.15;18.80;;;;;;;4.96;93.99;97200.31;5055166;28;19924;-65
2021/12/02 01:01:38;;;;;;;30.65;18.42;;;;;;;4.84;93.45;97175.72;5019607;28;20021;-65
2021/12/02 01:04:10;;;;;;;28.95;18.83;;;;;;;4.74;93.32;97150.00;5041105;28;20029;-64
2021/12/02 01:06:36;;;;;;;28.50;18.52;;;;;;;4.94;92.69;97182.44;5033569;28;20383;-64
2021/12/02 01:09:04;;;;;;;29.60;18.08;;;;;;;4.94;91.83;97190.16;5023383;28;20044;-65
2021/12/02 01:11:29;;;;;;;30.42;18.02;;;;;;;4.87;90.73;97183.97;5038200;28;20017;-65
2021/12/02 01:13:55;;;;;;;31.75;18.63;;;;;;;4.79;90.64;97187.25;5058576;28;20043;-64
2021/12/02 01:16:21;;;;;;;26.75;16.48;;;;;;;4.82;90.97;97181.81;5039732;28;20024;-64
2021/12/02 01:18:47;;;;;;;28.77;18.08;;;;;;;4.83;89.60;97180.06;5034578;28;20108;-65
2021/12/02 01:21:15;;;;;;;31.92;18.45;;;;;;;4.55;89.99;97135.47;5053185;28;20032;-65
2021/12/02 01:23:41;;;;;;;29.08;17.42;;;;;;;4.84;91.49;97181.69;5037873;28;20025;-65
2021/12/02 01:26:08;;;;;;;32.42;19.10;;;;;;;4.58;91.61;97135.19;5044596;28;20541;-64
2021/12/02 01:28:34;;;;;;;33.35;18.88;;;;;;;4.80;91.12;97176.00;5035511;28;20071;-65
2021/12/02 01:31:00;;;;;;;35.58;19.08;;;;;;;4.94;89.71;97171.31;5035555;28;20560;-65
2021/12/02 01:33:26;;;;;;;32.97;19.67;;;;;;;4.90;89.32;97177.72;5029740;28;20081;-64
2021/12/02 01:35:58;;;;;;;30.58;18.67;;;;;;;4.84;89.84;97167.97;5030938;28;20078;-64
2021/12/02 01:38:24;;;;;;;29.13;18.90;;;;;;;4.85;90.61;97172.19;5041596;28;20466;-65
2021/12/02 01:40:51;;;;;;;28.95;19.10;;;;;;;4.81;90.67;97162.16;5035001;28;20029;-65
2021/12/02 01:43:19;;;;;;;29.48;18.55;;;;;;;4.85;90.69;97160.13;5023400;28;20488;-65
2021/12/02 01:45:45;;;;;;;32.00;19.30;;;;;;;4.93;90.98;97164.56;5043563;28;20025;-64
2021/12/02 01:48:16;;;;;;;26.60;17.73;;;;;;;4.98;89.94;97158.03;5037517;28;20686;-64
2021/12/02 01:50:43;;;;;;;28.45;18.10;;;;;;;5.05;90.50;97162.59;5050800;28;20069;-64
2021/12/02 01:53:14;;;;;;;28.13;17.77;;;;;;;5.02;89.81;97155.97;5019938;28;20363;-65
2021/12/02 01:55:43;;;;;;;27.63;17.92;;;;;;;5.04;90.15;97146.31;5046129;28;20014;-65
2021/12/02 01:58:15;;;;;;;30.17;18.45;;;;;;;5.03;90.08;97125.84;5037876;28;20056;-65
2021/12/02 02:00:46;;;;;;;28.70;17.65;;;;;;;5.08;90.04;97139.91;5050317;28;20017;-65
2021/12/02 02:03:14;;;;;;;26.73;16.98;;;;;;;5.05;89.96;97140.19;5054533;28;20036;-65
2021/12/02 02:05:41;;;;;;;25.13;17.48;;;;;;;4.97;91.32;97133.22;5050671;28;20562;-65
2021/12/02 02:08:17;;;;;;;27.73;17.50;;;;;;;5.01;91.85;97134.53;5035844;28;20025;-65
2021/12/02 02:10:44;;;;;;;25.80;16.65;;;;;;;4.66;92.59;97078.66;5040064;28;20028;-64
2021/12/02 02:13:13;;;;;;;25.75;16.80;;;;;;;4.89;92.46;97112.53;5033792;28;20033;-65
2021/12/02 02:15:47;;;;;;;29.88;17.75;;;;;;;4.64;92.85;97072.84;5031848;28;20020;-65
2021/12/02 02:18:23;;;;;;;26.63;17.33;;;;;;;4.93;92.73;97115.63;5038087;28;20028;-65
2021/12/02 02:20:59;;;;;;;27.92;18.63;;;;;;;5.01;93.87;97107.97;5037070;28;20032;-65
2021/12/02 02:23:26;;;;;;;25.10;18.05;;;;;;;5.01;94.15;97103.63;5050003;28;20104;-65
2021/12/02 02:25:52;;;;;;;27.55;18.17;;;;;;;5.03;93.16;97107.81;5052576;28;20036;-64
2021/12/02 02:28:18;;;;;;;26.90;18.50;;;;;;;5.08;93.21;97106.44;5056321;28;20047;-65
2021/12/02 02:30:43;;;;;;;27.67;17.80;;;;;;;5.12;93.60;97097.44;5029871;28;20021;-64
2021/12/02 02:33:13;;;;;;;28.83;19.45;;;;;;;5.15;92.35;97086.84;5051221;28;20028;-65
2021/12/02 02:35:40;;;;;;;29.60;19.20;;;;;;;5.01;92.39;97072.69;5041629;28;20043;-65
2021/12/02 02:38:06;;;;;;;31.25;18.17;;;;;;;4.99;92.39;97069.47;5051989;28;20486;-65
2021/12/02 02:40:34;;;;;;;32.50;19.50;;;;;;;4.91;92.98;97055.69;5038042;28;20075;-64
2021/12/02 02:43:06;;;;;;;31.08;18.65;;;;;;;4.68;92.11;97027.00;5050229;28;20118;-64
2021/12/02 02:45:32;;;;;;;31.50;19.20;;;;;;;4.86;92.73;97053.56;5014271;28;20063;-64
2021/12/02 02:47:58;;;;;;;27.58;18.88;;;;;;;4.92;92.39;97052.97;5038194;28;20029;-65
2021/12/02 02:50:23;;;;;;;30.90;18.60;;;;;;;4.79;92.06;97019.06;5048418;28;20096;-64
2021/12/02 02:52:59;;;;;;;27.80;17.65;;;;;;;4.93;93.08;97064.91;5039616;28;20028;-65
2021/12/02 02:55:25;;;;;;;29.13;18.30;;;;;;;4.67;93.50;97013.31;5048850;28;20033;-65
2021/12/02 02:58:02;;;;;;;31.13;18.85;;;;;;;4.88;93.34;97064.53;5058395;28;20032;-65
2021/12/02 03:00:36;;;;;;;30.48;18.55;;;;;;;4.84;93.21;97057.25;5038743;28;20724;-65
2021/12/02 03:08:51;;;;;;;31.20;18.83;;;;;;;4.90;93.54;97066.97;5038993;28;20758;-65
2021/12/02 03:11:19;;;;;;;29.88;18.35;;;;;;;4.92;93.77;97076.16;5044546;28;20382;-65
2021/12/02 03:13:51;;;;;;;30.77;19.23;;;;;;;4.72;93.73;97018.84;5043151;28;20024;-65
2021/12/02 03:19:01;;;;;;;29.00;18.42;;;;;;;4.78;94.54;97054.31;5052130;28;20043;-65
2021/12/02 03:21:28;;;;;;;31.55;19.48;;;;;;;4.87;93.94;97067.25;5041262;28;20032;-65
2021/12/02 03:23:59;;;;;;;29.38;17.48;;;;;;;4.94;93.29;97056.22;5038860;28;20478;-64
2021/12/02 03:26:25;;;;;;;28.35;18.85;;;;;;;4.76;93.51;97027.06;5041133;28;20031;-64
2021/12/02 03:28:52;;;;;;;33.30;19.00;;;;;;;4.88;93.66;97048.28;5053414;28;20373;-64
2021/12/02 03:31:17;;;;;;;31.05;19.88;;;;;;;4.63;93.82;97015.38;5042600;28;20077;-65
2021/12/02 03:33:44;;;;;;;34.83;19.83;;;;;;;4.81;94.83;97048.84;5059190;28;20450;-65
2021/12/02 03:36:11;;;;;;;27.90;17.75;;;;;;;4.86;93.89;97040.69;5040274;28;20185;-65
2021/12/02 03:38:37;;;;;;;32.70;19.38;;;;;;;4.93;94.04;97044.31;5037460;28;20037;-65
2021/12/02 03:41:02;;;;;;;28.77;19.45;;;;;;;4.99;93.81;97038.56;5044132;28;20033;-65
2021/12/02 03:43:36;;;;;;;31.15;19.77;;;;;;;4.99;93.67;97035.97;5044376;28;20064;-64
2021/12/02 03:46:02;;;;;;;30.75;18.88;;;;;;;4.99;92.18;97033.41;5034240;28;20064;-65
2021/12/02 03:48:28;;;;;;;27.65;18.83;;;;;;;5.05;91.73;97026.03;5063042;28;20064;-65
2021/12/02 03:50:53;;;;;;;26.23;18.42;;;;;;;5.09;91.99;97020.47;5035557;28;20102;-65
2021/12/02 03:53:19;;;;;;;28.35;18.60;;;;;;;5.06;91.70;97023.31;5028836;28;20031;-65
2021/12/02 03:55:44;;;;;;;31.08;18.13;;;;;;;5.00;91.74;97024.72;5044072;28;20059;-65
2021/12/02 03:58:10;;;;;;;26.73;18.60;;;;;;;5.02;91.91;97024.59;5042039;28;20453;-65
2021/12/02 04:00:35;;;;;;;29.48;19.00;;;;;;;4.98;91.94;97015.50;5024128;28;20017;-65
2021/12/02 04:03:01;;;;;;;31.70;19.27;;;;;;;4.95;92.48;97015.84;5057916;28;20090;-65
2021/12/02 04:05:26;;;;;;;29.52;18.52;;;;;;;4.92;91.82;97021.28;5027054;28;20098;-65
2021/12/02 04:07:52;;;;;;;32.47;19.73;;;;;;;4.97;91.33;97021.63;5039123;28;20497;-65
2021/12/02 04:10:19;;;;;;;29.45;19.00;;;;;;;4.96;92.77;97032.88;5055564;28;20029;-64
2021/12/02 04:15:29;;;;;;;26.33;17.92;;;;;;;5.05;91.92;97015.75;5055636;28;20036;-65
2021/12/02 04:17:55;;;;;;;33.15;18.70;;;;;;;4.93;93.18;97012.59;5059032;28;20107;-64
2021/12/02 04:20:22;;;;;;;30.00;18.50;;;;;;;4.84;92.83;96992.84;5052943;28;20036;-65
2021/12/02 04:22:51;;;;;;;33.40;19.60;;;;;;;4.58;92.08;96957.56;5038338;28;20036;-65
2021/12/02 04:25:17;;;;;;;26.58;17.77;;;;;;;4.79;92.06;97013.91;5038174;28;20040;-65
2021/12/02 04:27:44;;;;;;;30.85;18.63;;;;;;;4.85;92.57;97008.16;5029303;28;20115;-64
2021/12/02 04:30:12;;;;;;;26.70;17.23;;;;;;;4.75;91.85;96995.38;5040945;28;20055;-65
2021/12/02 04:32:37;;;;;;;28.70;16.63;;;;;;;4.92;92.11;97003.25;5037908;28;20029;-64
2021/12/02 04:35:04;;;;;;;28.52;17.23;;;;;;;4.87;92.17;97002.88;5039856;28;20040;-65
2021/12/02 04:37:30;;;;;;;29.55;18.05;;;;;;;4.89;92.38;96999.22;5052499;28;20039;-64
2021/12/02 04:39:56;;;;;;;29.02;17.73;;;;;;;5.01;92.23;97007.50;5056650;28;20025;-64
2021/12/02 04:42:21;;;;;;;29.75;19.42;;;;;;;4.59;92.15;96959.97;5039452;28;20040;-65
2021/12/02 04:44:47;;;;;;;31.52;19.83;;;;;;;4.65;93.30;96963.72;5035563;28;20025;-65
2021/12/02 04:47:12;;;;;;;32.70;19.75;;;;;;;4.91;93.64;97002.44;5036834;28;20020;-65
2021/12/02 04:49:38;;;;;;;31.13;19.77;;;;;;;5.00;93.08;97005.88;5039967;28;20774;-64
2021/12/02 04:52:04;;;;;;;31.10;20.70;;;;;;;4.93;93.06;97002.28;5054707;28;20024;-65
2021/12/02 04:54:29;;;;;;;30.85;19.13;;;;;;;4.92;92.78;97006.63;5034361;28;20024;-65
2021/12/02 04:56:55;;;;;;;28.67;17.77;;;;;;;4.83;93.02;97002.34;5058811;28;20024;-65
2021/12/02 04:59:20;;;;;;;33.85;18.90;;;;;;;4.94;92.39;96998.75;5054513;28;20316;-65
2021/12/02 05:01:46;;;;;;;30.08;18.70;;;;;;;4.75;92.32;96961.09;5038391;28;20028;-65
2021/12/02 05:04:11;;;;;;;29.63;18.90;;;;;;;4.94;92.09;96988.44;5026972;28;20616;-65
2021/12/02 05:06:36;;;;;;;30.67;19.38;;;;;;;4.97;92.33;97001.03;5060073;28;20040;-65
2021/12/02 05:09:02;;;;;;;32.88;21.38;;;;;;;4.92;92.64;97001.47;5056258;28;20104;-64
2021/12/02 05:11:27;;;;;;;34.15;20.23;;;;;;;4.53;92.75;96942.56;5041131;28;20024;-65
2021/12/02 05:13:53;;;;;;;30.70;20.05;;;;;;;4.99;91.71;96992.19;5042858;28;20107;-64
2021/12/02 05:16:18;;;;;;;33.97;18.88;;;;;;;4.94;91.95;96983.28;5052374;28;20027;-65
2021/12/02 05:18:44;;;;;;;30.08;17.98;;;;;;;4.96;92.19;96983.94;5034201;28;20031;-65
2021/12/02 05:21:09;;;;;;;29.90;17.85;;;;;;;4.85;93.21;96989.34;5038251;28;20482;-64
2021/12/02 05:23:35;;;;;;;32.83;18.73;;;;;;;4.80;94.06;96990.59;5037103;28;20511;-64
2021/12/02 05:26:00;;;;;;;31.08;19.80;;;;;;;4.51;93.61;96943.66;5050699;28;20039;-65
2021/12/02 05:28:26;;;;;;;31.10;19.42;;;;;;;4.86;93.48;96990.97;5041074;28;20217;-64
2021/12/02 05:30:51;;;;;;;33.58;20.48;;;;;;;4.83;92.60;96974.03;5056753;28;20163;-65
2021/12/02 05:33:17;;;;;;;36.58;22.88;;;;;;;4.90;93.21;96987.94;5040487;28;20482;-65
2021/12/02 05:35:43;;;;;;;35.17;20.67;;;;;;;4.90;93.26;96994.84;5038362;28;20029;-65
2021/12/02 05:38:09;;;;;;;31.88;20.85;;;;;;;4.96;93.25;96989.91;5041857;28;20064;-65
2021/12/02 05:40:35;;;;;;;29.27;18.92;;;;;;;4.96;93.37;96986.53;5040904;28;20130;-65
2021/12/02 05:43:01;;;;;;;29.83;19.17;;;;;;;4.95;92.11;96983.16;5039195;28;20459;-65
2021/12/02 05:45:26;;;;;;;29.80;19.02;;;;;;;4.92;92.39;96980.84;5031783;28;20497;-65
2021/12/02 05:47:52;;;;;;;29.40;18.83;;;;;;;4.90;93.88;96971.69;5040635;28;20127;-65
2021/12/02 05:50:18;;;;;;;28.65;19.10;;;;;;;4.67;93.69;96943.78;5052153;28;20037;-65
2021/12/02 05:52:44;;;;;;;30.65;19.13;;;;;;;4.88;92.32;96971.03;5025913;28;20446;-64
2021/12/02 05:55:09;;;;;;;30.77;20.05;;;;;;;4.77;92.42;96965.13;5034845;28;20037;-65
2021/12/02 05:57:35;;;;;;;29.02;19.00;;;;;;;4.85;92.47;96964.38;5042078;28;20182;-64
2021/12/02 06:00:00;;;;;;;30.42;19.80;;;;;;;4.73;92.47;96943.22;5034312;28;20135;-64
2021/12/02 06:02:27;;;;;;;30.30;19.80;;;;;;;4.93;92.31;96964.47;5044268;28;20033;-65
2021/12/02 06:04:53;;;;;;;32.13;20.42;;;;;;;4.96;92.30;96969.28;5055594;28;20028;-64
2021/12/02 06:07:20;;;;;;;33.80;20.25;;;;;;;4.98;93.15;96964.00;5038293;28;20039;-65
2021/12/02 06:09:46;;;;;;;32.40;21.80;;;;;;;4.92;93.29;96962.03;5032574;28;20103;-65
2021/12/02 06:12:12;;;;;;;33.47;22.13;;;;;;;4.85;93.56;96961.00;5039134;28;20028;-65
2021/12/02 06:14:37;;;;;;;32.78;20.80;;;;;;;4.70;92.78;96948.66;5022106;28;20516;-64
2021/12/02 06:17:03;;;;;;;30.15;19.83;;;;;;;4.69;92.16;96928.19;5054367;28;20524;-64
2021/12/02 06:19:28;;;;;;;34.45;20.38;;;;;;;4.99;93.33;96961.28;5057603;28;20020;-65
2021/12/02 06:21:55;;;;;;;32.58;20.58;;;;;;;5.00;93.49;96957.75;5039397;28;20047;-64
2021/12/02 06:24:28;;;;;;;29.40;19.55;;;;;;;5.06;93.81;96958.91;5034922;28;20786;-65
2021/12/02 06:26:53;;;;;;;30.02;19.88;;;;;;;5.05;93.76;96952.13;5028003;28;20126;-64
2021/12/02 06:29:18;;;;;;;31.63;20.38;;;;;;;4.92;93.01;96931.13;5045615;28;20520;-64
2021/12/02 06:31:44;;;;;;;30.45;20.73;;;;;;;4.90;92.28;96922.75;5059581;28;20028;-64
2021/12/02 06:34:09;;;;;;;29.95;19.88;;;;;;;5.11;92.44;96958.44;5051841;28;20467;-65
2021/12/02 06:36:36;;;;;;;34.72;22.13;;;;;;;5.11;93.70;96954.13;5039796;28;20039;-64
2021/12/02 06:39:02;;;;;;;30.25;20.30;;;;;;;5.09;93.32;96956.06;5052064;28;20020;-65
2021/12/02 06:41:28;;;;;;;34.63;20.48;;;;;;;5.08;93.34;96943.31;5035674;28;20047;-65
2021/12/02 06:43:53;;;;;;;33.08;21.13;;;;;;;5.03;93.37;96945.53;5037230;28;20396;-64
2021/12/02 06:46:19;;;;;;;30.42;19.58;;;;;;;5.06;92.82;96958.91;5049850;28;20037;-64
2021/12/02 06:48:46;;;;;;;31.15;20.27;;;;;;;5.03;93.07;96963.56;5053359;28;20039;-65
2021/12/02 06:51:13;;;;;;;32.20;19.40;;;;;;;4.97;92.30;96949.50;5026613;28;20123;-64
2021/12/02 06:53:40;;;;;;;32.78;19.60;;;;;;;4.73;91.52;96911.53;5040473;28;20513;-65
2021/12/02 06:56:05;;;;;;;29.52;19.52;;;;;;;5.08;91.93;96966.50;5018320;28;20041;-64
2021/12/02 06:58:31;;;;;;;31.10;18.95;;;;;;;5.01;92.22;96946.47;5026249;28;20462;-64
2021/12/02 07:00:56;;;;;;;32.00;19.70;;;;;;;5.12;91.18;96949.78;5030321;28;20041;-65
2021/12/02 07:03:22;;;;;;;29.98;18.95;;;;;;;4.86;91.97;96909.34;5051412;28;20025;-65
2021/12/02 07:05:47;;;;;;;28.88;19.20;;;;;;;5.03;91.56;96959.22;5062462;28;20086;-65
2021/12/02 07:08:13;;;;;;;31.77;19.08;;;;;;;4.52;91.85;96878.34;5031440;28;20036;-65
2021/12/02 07:10:39;;;;;;;31.10;19.38;;;;;;;5.04;92.17;96968.56;5054751;28;20115;-65
2021/12/02 07:13:05;;;;;;;35.17;21.67;;;;;;;5.08;92.31;96975.03;5042892;28;20450;-64
2021/12/02 07:15:53;;;;;;;34.25;19.60;;;;;;;5.01;91.46;96974.81;5060407;28;20033;-65
2021/12/02 07:18:17;;;;;;;34.65;19.73;;;;;;;4.94;91.56;96973.78;5051434;28;20124;-65
2021/12/02 07:20:46;;;;;;;29.80;19.60;;;;;;;4.91;92.37;96962.97;5052414;28;20546;-65
2021/12/02 07:23:12;;;;;;;30.45;19.77;;;;;;;4.69;93.20;96939.31;5048072;28;20036;-65
2021/12/02 07:25:40;;;;;;;27.80;18.38;;;;;;;4.79;92.95;96934.09;5046739;28;20098;-65
2021/12/02 07:28:07;;;;;;;36.38;19.23;;;;;;;5.00;93.47;96960.31;5045686;28;20023;-65
2021/12/02 07:30:32;;;;;;;32.03;19.45;;;;;;;5.00;93.33;96962.91;5047439;28;20036;-65
2021/12/02 07:33:00;;;;;;;29.63;17.95;;;;;;;5.09;93.99;96961.19;5045279;28;20032;-65
2021/12/02 07:35:26;;;;;;;26.23;16.73;;;;;;;4.92;93.25;96906.16;5055256;28;20030;-65
2021/12/02 07:37:54;;;;;;;28.67;17.30;;;;;;;5.19;93.28;96940.47;5042424;28;20020;-65
2021/12/02 07:40:21;;;;;;;28.02;16.67;;;;;;;5.31;93.37;96951.34;5037984;28;20046;-65
2021/12/02 07:42:51;;;;;;;26.70;17.75;;;;;;;5.36;92.98;96949.13;5056031;28;20568;-65
2021/12/02 07:45:18;;;;;;;26.98;16.38;;;;;;;5.26;93.31;96958.75;5052440;28;20426;-65
2021/12/02 07:47:44;;;;;;;26.63;17.55;;;;;;;5.31;92.99;96944.44;5033291;28;20063;-65
2021/12/02 07:50:12;;;;;;;27.88;17.92;;;;;;;5.44;92.38;96956.06;5041002;28;20056;-65
2021/12/02 07:52:49;;;;;;;27.77;16.73;;;;;;;5.36;92.28;96952.50;5043319;28;20033;-65
2021/12/02 07:55:15;;;;;;;25.73;15.63;;;;;;;5.46;92.49;96952.41;5036071;28;20032;-64
2021/12/02 07:57:43;;;;;;;23.65;14.60;;;;;;;5.14;92.30;96902.28;5029205;28;20108;-65
2021/12/02 08:00:09;;;;;;;22.65;13.55;;;;;;;5.45;91.84;96945.63;5051576;28;20025;-65
2021/12/02 08:02:36;;;;;;;18.80;10.73;;;;;;;5.41;91.47;96954.63;5054169;28;20033;-64
2021/12/02 08:05:02;;;;;;;15.90;9.40;;;;;;;5.37;91.88;96951.53;5039125;28;20051;-66
2021/12/02 08:07:28;;;;;;;15.15;9.40;;;;;;;5.35;92.00;96953.47;5038834;28;20450;-65
2021/12/02 08:09:53;;;;;;;14.40;8.60;;;;;;;5.40;90.81;96963.31;5058719;28;20028;-64
2021/12/02 08:12:19;;;;;;;12.73;7.65;;;;;;;5.35;89.36;96956.03;5039768;28;20031;-64
2021/12/02 08:14:45;;;;;;;12.05;7.13;;;;;;;5.34;88.55;96953.63;5048576;28;20021;-65
2021/12/02 08:17:10;;;;;;;12.27;7.68;;;;;;;5.19;88.96;96930.19;5057453;28;20479;-64
2021/12/02 08:19:36;;;;;;;15.98;7.45;;;;;;;5.48;87.58;96978.03;5026937;28;20112;-64
2021/12/02 08:22:01;;;;;;;15.82;8.05;;;;;;;5.45;87.49;96968.03;5057329;28;20120;-64
2021/12/02 08:24:27;;;;;;;15.65;7.05;;;;;;;5.39;86.43;96951.41;5024654;28;20029;-64
2021/12/02 08:26:53;;;;;;;11.00;6.07;;;;;;;5.39;86.04;96961.72;5052907;28;20064;-65
2021/12/02 08:29:20;;;;;;;11.13;6.20;;;;;;;5.39;nan;96962.50;5023774;28;20059;-64
2021/12/02 08:31:45;;;;;;;10.75;6.85;;;;;;;5.22;85.70;96932.47;5052088;28;20028;-64
2021/12/02 08:34:11;;;;;;;10.35;6.43;;;;;;;5.23;86.35;96933.25;5053036;28;20100;-64
2021/12/02 08:36:49;;;;;;;10.32;6.00;;;;;;;5.52;84.99;96976.75;5045165;28;20097;-64
2021/12/02 08:39:17;;;;;;;12.02;6.00;;;;;;;5.48;85.73;96971.09;5038731;28;20021;-64
2021/12/02 08:41:46;;;;;;;10.45;6.75;;;;;;;5.30;85.83;96934.28;5048446;28;20055;-64
2021/12/02 08:44:13;;;;;;;13.32;8.23;;;;;;;5.53;86.50;96973.22;5049293;28;20021;-64
2021/12/02 08:46:39;;;;;;;11.57;7.70;;;;;;;5.42;86.29;96971.72;5046551;28;20029;-64
2021/12/02 08:49:04;;;;;;;10.50;7.07;;;;;;;5.56;85.85;96975.50;5042269;28;20028;-64
2021/12/02 08:51:30;;;;;;;12.95;7.82;;;;;;;5.29;86.61;96930.88;5028778;28;20033;-65
2021/12/02 08:53:55;;;;;;;13.43;7.85;;;;;;;5.35;86.19;96958.63;5041202;28;20415;-64
2021/12/02 08:56:21;;;;;;;12.55;8.60;;;;;;;5.55;86.97;96973.88;5044102;28;20031;-64
2021/12/02 08:58:46;;;;;;;12.38;7.18;;;;;;;5.54;85.88;96965.31;5037549;28;20403;-64
2021/12/02 09:01:12;;;;;;;13.27;6.97;;;;;;;5.53;85.47;96963.72;5055513;28;20455;-65
2021/12/02 09:03:38;;;;;;;11.27;6.90;;;;;;;5.57;86.34;96977.13;5054333;28;20391;-64
2021/12/02 09:06:08;;;;;;;11.43;6.22;;;;;;;5.25;86.07;96926.19;5038710;28;20095;-64
2021/12/02 09:08:35;;;;;;;10.77;5.82;;;;;;;5.49;84.67;96966.75;5056705;28;20479;-64
2021/12/02 09:11:00;;;;;;;10.52;6.05;;;;;;;5.35;85.39;96939.78;5039551;28;20802;-63
2021/12/02 09:13:26;;;;;;;10.80;6.75;;;;;;;5.60;86.33;96966.47;5054620;28;20028;-64
2021/12/02 09:15:51;;;;;;;14.93;6.40;;;;;;;5.56;85.61;96962.59;5045608;28;20025;-64
2021/12/02 09:18:16;;;;;;;10.98;6.70;;;;;;;5.53;85.89;96962.91;5035076;28;20029;-64
2021/12/02 09:20:43;;;;;;;10.90;6.13;;;;;;;5.54;86.65;96959.38;5054662;28;20048;-64
2021/12/02 09:23:08;;;;;;;9.13;5.82;;;;;;;5.54;85.10;96946.47;5059034;28;20064;-64
2021/12/02 09:25:34;;;;;;;8.90;5.75;;;;;;;5.50;85.50;96948.56;5045796;28;20088;-64
2021/12/02 09:28:00;;;;;;;10.27;5.97;;;;;;;5.26;85.53;96899.47;5039587;28;20047;-64
2021/12/02 09:30:26;;;;;;;9.50;6.05;;;;;;;5.61;85.98;96946.69;5037199;28;20017;-64
2021/12/02 09:32:52;;;;;;;8.45;5.30;;;;;;;5.48;86.33;96945.31;5056811;28;20479;-65
2021/12/02 09:35:17;;;;;;;9.77;5.50;;;;;;;5.55;85.35;96953.25;5051457;28;20040;-64
2021/12/02 09:37:43;;;;;;;8.63;5.40;;;;;;;5.33;85.33;96903.84;5057029;28;20032;-64
2021/12/02 09:40:11;;;;;;;8.00;4.90;;;;;;;5.61;85.83;96944.91;5058108;28;20515;-63
2021/12/02 09:42:37;;;;;;;8.85;5.38;;;;;;;5.62;85.90;96945.69;5036887;28;20063;-64
2021/12/02 09:45:04;;;;;;;10.30;6.13;;;;;;;5.23;85.41;96882.53;5042810;28;20051;-64
2021/12/02 09:47:37;;;;;;;14.30;6.05;;;;;;;5.53;85.54;96934.53;5057249;28;20023;-64
2021/12/02 09:50:09;;;;;;;10.82;5.43;;;;;;;5.57;85.92;96923.78;5032578;28;20032;-64
2021/12/02 09:52:38;;;;;;;12.15;5.22;;;;;;;5.36;84.33;96880.31;5034684;28;20028;-65
2021/12/02 09:57:57;;;;;;;9.80;5.13;;;;;;;5.41;80.45;96871.34;5012987;28;21381;-64
2021/12/02 10:00:37;;;;;;;16.63;5.63;;;;;;;5.76;81.07;96917.56;5059500;28;20111;-64
2021/12/02 10:03:06;;;;;;;13.88;5.30;;;;;;;5.84;81.41;96903.91;5050164;28;20816;-64
2021/12/02 10:05:38;;;;;;;33.53;8.07;;;;;;;5.87;82.33;96893.25;5041283;28;20494;-64
2021/12/02 10:08:10;;;;;;;9.77;4.72;;;;;;;5.85;81.96;96879.69;5047890;28;20017;-64
2021/12/02 10:10:41;;;;;;;9.65;4.88;;;;;;;5.72;82.11;96844.03;5037841;28;20025;-64
2021/12/02 10:16:32;;;;;;;8.30;4.63;;;;;;;6.06;80.83;96876.72;5044307;28;20036;-63
2021/12/02 10:19:04;;;;;;;8.65;4.90;;;;;;;6.09;81.99;96876.41;5037951;28;20056;-64
2021/12/02 10:21:39;;;;;;;8.38;5.15;;;;;;;5.75;82.67;96832.63;5053267;28;20036;-64
2021/12/02 10:24:07;;;;;;;8.57;5.30;;;;;;;6.05;82.77;96871.72;5054060;28;20021;-65
2021/12/02 10:26:36;;;;;;;9.38;5.30;;;;;;;5.95;81.12;96861.50;5027976;28;20037;-64
2021/12/02 10:29:08;;;;;;;8.13;4.57;;;;;;;5.95;81.88;96864.94;5030361;28;20095;-65
2021/12/02 10:31:34;;;;;;;8.52;5.18;;;;;;;5.74;82.04;96803.44;5049872;28;20805;-65
2021/12/02 10:34:03;;;;;;;10.05;5.47;;;;;;;6.10;83.03;96847.06;5057321;28;20033;-64
2021/12/02 10:36:39;;;;;;;8.15;4.90;;;;;;;6.09;80.84;96847.22;5039522;28;20043;-64
2021/12/02 10:39:09;;;;;;;8.00;4.93;;;;;;;6.05;80.64;96840.75;5036744;28;20080;-64
2021/12/02 10:41:34;;;;;;;;;;;;;;;6.06;80.02;96837.19;5047911;28;20492;-64
2021/12/02 10:44:05;;;;;;;8.82;5.28;;;;;;;5.94;81.92;96821.19;5030401;28;19917;-64
2021/12/02 10:46:31;;;;;;;9.30;5.15;;;;;;;6.04;80.99;96829.66;5019828;28;20124;-64
2021/12/02 10:48:56;;;;;;;8.68;4.90;;;;;;;5.94;79.02;96822.00;5032004;28;20068;-64
2021/12/02 10:51:45;;;;;;;8.20;4.95;;;;;;;6.09;80.49;96822.19;5040655;28;20159;-64
2021/12/02 10:54:14;;;;;;;9.20;5.10;;;;;;;6.15;79.31;96816.41;5046240;28;20075;-65
2021/12/02 10:56:46;;;;;;;9.40;5.22;;;;;;;6.09;79.23;96805.94;5041283;28;20674;-64
2021/12/02 10:59:42;;;;;;;10.30;5.45;;;;;;;5.95;78.70;96769.47;5038699;28;20032;-64
2021/12/02 11:02:19;;;;;;;8.00;4.55;;;;;;;6.19;78.75;96813.50;5044641;28;20028;-64
2021/12/02 11:04:47;;;;;;;8.93;5.05;;;;;;;6.12;77.82;96797.88;4967085;28;20111;-65
2021/12/02 11:07:25;;;;;;;8.50;5.15;;;;;;;6.16;77.79;96802.53;5039049;28;20383;-64
2021/12/02 11:09:52;;;;;;;7.80;4.57;;;;;;;6.07;77.54;96771.75;5046303;28;20043;-64
2021/12/02 11:12:18;;;;;;;8.30;4.75;;;;;;;6.32;78.11;96791.41;5036080;28;20102;-64
2021/12/02 11:15:01;;;;;;;8.38;5.18;;;;;;;6.34;79.48;96776.56;5041290;28;20029;-64
2021/12/02 11:17:32;;;;;;;9.60;5.15;;;;;;;6.09;79.64;96725.94;5047487;28;20479;-65
2021/12/02 11:20:00;;;;;;;10.77;5.38;;;;;;;6.39;78.75;96770.09;5017652;28;20048;-64
2021/12/02 11:22:28;;;;;;;8.40;4.93;;;;;;;6.39;79.65;96770.09;5043948;28;20029;-64
2021/12/02 11:24:54;;;;;;;8.57;5.47;;;;;;;6.31;79.91;96751.06;5029215;28;20498;-64
2021/12/02 11:27:22;;;;;;;10.32;5.10;;;;;;;6.33;81.40;96759.47;5050463;28;20060;-64
2021/12/02 11:29:47;;;;;;;11.48;4.90;;;;;;;6.34;80.31;96755.91;5045919;28;20024;-65
2021/12/02 11:32:27;;;;;;;8.95;4.97;;;;;;;6.40;80.86;96753.66;5043306;28;20080;-65
2021/12/02 11:35:06;;;;;;;9.80;5.30;;;;;;;6.35;78.27;96747.22;5035650;28;20033;-64
2021/12/02 11:37:34;;;;;;;9.32;4.75;;;;;;;6.11;77.99;96704.16;5051718;28;20040;-64
2021/12/02 11:40:06;;;;;;;8.32;5.15;;;;;;;6.39;77.83;96739.94;5041611;28;20063;-64
2021/12/02 11:42:32;;;;;;;8.18;4.82;;;;;;;6.42;77.93;96736.22;5057074;28;20037;-64
2021/12/02 11:44:57;;;;;;;9.18;5.10;;;;;;;6.46;77.05;96745.25;5055448;28;20036;-64
2021/12/02 11:47:23;;;;;;;9.05;5.47;;;;;;;6.30;78.17;96723.66;5062626;28;20027;-64
2021/12/02 11:49:49;;;;;;;9.50;5.07;;;;;;;6.41;78.27;96727.69;5050284;28;20056;-64
2021/12/02 11:52:16;;;;;;;8.63;5.53;;;;;;;6.44;78.96;96726.53;5035879;28;20625;-63